Terminal Aerodrome Forecast
Issued by NWS Jackson, MS

Home | Current Version | Previous Version | Text Only | Print | Product List | Glossary On
Versions: 1 2 3 4 5 6 7 8 9 10 11 12 13 14 15 16 17 18 19
000
FTUS44 KMEG 241906 AAA
TAFTUP
TAF AMD
KTUP 241906Z 2419/2518 18005KT P6SM VCSH BKN030 BKN150
     FM242100 21005KT P6SM VCTS SCT030CB BKN250
      TEMPO 2421/2424 VRB12G22KT 4SM TSRA BKN030CB
     FM250100 23003KT P6SM SCT030 BKN250
     FM250600 VRB03KT 6SM BR FEW250
      TEMPO 2508/2512 2SM BR OVC008
     FM251400 22004KT P6SM SCT030=

USA.gov is the U.S. government's official web portal to all federal, state and local government web resources and services.